»·PEaware :: N225RA 1O5-KRDD

N225RA :: 1O5-KRDD

FLIGHT INFORMATION

Flight Status: Arrived
Operator: Privately registered:
United States
More flights under this callsign
Pilot: Matt S. (31059)
Aircraft: CESSNA 172 SKYHAWK
(C172)
More flights by this aircraft type
Origin: 1O5 Montague-Yreka Rohrer
United States
Destination: KRDD Redding Mun
United States
More flights between these airports :: More routes between these airports
Route:
File this flight plan on PilotEdge
Remarks:
Altitude:
(Current/Filed)
3,000ft
Speed:
(Current/Filed)
90kts
Departed: 22-Aug-20 06:19 AM
Arrived: 22-Aug-20 08:06 AM
Distance/Time
Traveled:
74nm/1:47
Distance/Time
To Go:
Arrived

Flight Plot

Page will automatically refresh every two minutes.

Flight plan parsing failed; only flown route is shown


Map Options




Map Legend


Flown Route
Filed Route
Departure Airport
Arrival Airport
Navaid (VOR, NDB)
Fix

Horizontal Profiles

Position Reports

Time Latitude Longitude Heading Altitude Ground
Speed
22-Aug-20 06:00 41.730589 -122.543945 73 2532ft 0kts
22-Aug-20 06:01 41.730589 -122.543942 72 2532ft 0kts
22-Aug-20 06:02 41.730662 -122.543758 11 2531ft 2kts
22-Aug-20 06:03 41.730307 -122.543943 89 2532ft 4kts
22-Aug-20 06:04 41.730345 -122.543792 68 2532ft 0kts
22-Aug-20 06:05 41.730345 -122.543792 68 2532ft 0kts
22-Aug-20 06:06 41.730345 -122.543792 68 2532ft 0kts
22-Aug-20 06:07 41.730345 -122.543792 68 2532ft 0kts
22-Aug-20 06:08 41.730345 -122.543792 68 2532ft 0kts
22-Aug-20 06:09 41.730345 -122.543792 68 2532ft 0kts
22-Aug-20 06:10 41.730345 -122.543792 68 2532ft 0kts
22-Aug-20 06:11 41.730345 -122.543792 68 2532ft 0kts
22-Aug-20 06:12 41.730345 -122.543792 68 2532ft 0kts
22-Aug-20 06:13 41.730345 -122.543792 68 2532ft 0kts
22-Aug-20 06:14 41.730356 -122.543722 89 2532ft 4kts
22-Aug-20 06:15 41.727859 -122.543026 188 2533ft 4kts
22-Aug-20 06:16 41.726472 -122.542298 158 2533ft 4kts
22-Aug-20 06:17 41.725967 -122.542091 186 2533ft 0kts
22-Aug-20 06:18 41.732233 -122.545637 338 2621ft 74kts
22-Aug-20 06:19 41.735305 -122.561162 164 3257ft 84kts
22-Aug-20 06:20 41.715476 -122.550831 151 3995ft 76kts
22-Aug-20 06:21 41.696268 -122.539419 139 4674ft 70kts
22-Aug-20 06:22 41.684040 -122.518448 121 5213ft 72kts
22-Aug-20 06:23 41.672457 -122.496595 127 5713ft 75kts
22-Aug-20 06:24 41.660577 -122.475016 124 6219ft 72kts
22-Aug-20 06:25 41.648732 -122.452928 123 6730ft 73kts
22-Aug-20 06:26 41.636086 -122.430769 126 7224ft 79kts
22-Aug-20 06:27 41.622038 -122.406811 128 7763ft 83kts
22-Aug-20 06:28 41.607831 -122.382720 126 8304ft 83kts
22-Aug-20 06:29 41.594489 -122.357375 127 8822ft 84kts
22-Aug-20 06:30 41.581128 -122.331871 106 9310ft 86kts
22-Aug-20 06:31 41.565154 -122.305925 127 9615ft 105kts
22-Aug-20 06:32 41.543958 -122.270773 128 9506ft 130kts
22-Aug-20 06:33 41.521615 -122.232874 128 9503ft 129kts
22-Aug-20 06:34 41.499285 -122.195084 128 9503ft 129kts
22-Aug-20 06:35 41.474878 -122.160057 141 9503ft 129kts
22-Aug-20 06:36 41.446663 -122.130231 141 9503ft 129kts
22-Aug-20 06:37 41.418453 -122.100467 141 9503ft 129kts
22-Aug-20 06:38 41.389058 -122.108788 226 9503ft 129kts
22-Aug-20 06:39 41.364727 -122.143547 227 9498ft 121kts
22-Aug-20 06:40 41.344180 -122.172432 225 9500ft 98kts
22-Aug-20 06:41 41.325924 -122.197814 225 9500ft 90kts
22-Aug-20 06:42 41.308989 -122.221133 224 9510ft 94kts
22-Aug-20 06:43 41.288576 -122.249418 226 9505ft 113kts
22-Aug-20 06:44 41.266502 -122.280810 226 9452ft 116kts
22-Aug-20 06:45 41.243940 -122.313098 227 9066ft 123kts
22-Aug-20 06:46 41.220363 -122.346984 227 8494ft 124kts
22-Aug-20 06:47 41.199429 -122.376976 227 7712ft 110kts
22-Aug-20 06:48 41.182003 -122.402017 227 7320ft 75kts
22-Aug-20 06:49 41.168004 -122.421266 230 7326ft 89kts
22-Aug-20 06:50 41.153689 -122.454294 245 7351ft 113kts
22-Aug-20 06:51 41.146244 -122.495433 257 7343ft 108kts
22-Aug-20 06:52 41.141164 -122.531178 259 6775ft 98kts
22-Aug-20 06:53 41.125901 -122.561882 224 6049ft 101kts
22-Aug-20 06:54 41.102808 -122.580166 196 5483ft 98kts
22-Aug-20 06:55 41.079245 -122.589791 194 5183ft 84kts
22-Aug-20 06:56 41.055272 -122.597049 191 4643ft 93kts
22-Aug-20 06:57 41.038914 -122.615501 282 3855ft 84kts
22-Aug-20 06:58 41.026587 -122.636575 247 3505ft 71kts
22-Aug-20 06:59 41.020537 -122.659974 240 3298ft 69kts
22-Aug-20 07:00 41.005818 -122.681243 235 3090ft 75kts
22-Aug-20 07:01 40.994504 -122.697563 192 2856ft 69kts
22-Aug-20 07:02 40.974885 -122.690098 163 2525ft 77kts
22-Aug-20 07:03 40.955827 -122.693187 204 3217ft 71kts
22-Aug-20 07:04 40.938188 -122.702601 173 3964ft 71kts
22-Aug-20 07:05 40.917102 -122.705403 185 4663ft 76kts
22-Aug-20 07:06 40.894957 -122.710583 190 5340ft 80kts
22-Aug-20 07:07 40.872820 -122.716841 190 6005ft 82kts
22-Aug-20 07:08 40.847546 -122.725468 196 6485ft 99kts
22-Aug-20 07:09 40.818967 -122.737969 197 6492ft 102kts
22-Aug-20 07:10 40.793105 -122.749153 197 6494ft 95kts
22-Aug-20 07:11 40.768256 -122.759876 197 6494ft 93kts
22-Aug-20 07:12 40.743718 -122.770467 197 6495ft 92kts
22-Aug-20 07:13 40.719243 -122.781049 197 6495ft 92kts
22-Aug-20 07:14 40.694813 -122.791637 197 6495ft 92kts
22-Aug-20 07:16 40.672758 -122.806793 243 6493ft 92kts
22-Aug-20 07:17 40.662463 -122.839756 247 6350ft 103kts
22-Aug-20 07:18 40.649136 -122.874969 222 5994ft 111kts
22-Aug-20 07:19 40.628134 -122.904771 241 5593ft 112kts
22-Aug-20 07:20 40.613737 -122.941038 242 5194ft 112kts
22-Aug-20 07:21 40.599368 -122.977413 242 4794ft 111kts
22-Aug-20 07:22 40.592484 -123.014425 253 4626ft 92kts
22-Aug-20 07:23 40.587291 -123.044065 252 4380ft 86kts
22-Aug-20 07:24 40.575820 -123.073339 241 4016ft 83kts
22-Aug-20 07:25 40.563748 -123.103411 255 3377ft 102kts
22-Aug-20 07:26 40.552234 -123.134940 250 2902ft 82kts
22-Aug-20 07:27 40.547501 -123.159404 267 2612ft 61kts
22-Aug-20 07:28 40.546955 -123.179845 270 2323ft 44kts
22-Aug-20 07:29 40.546602 -123.192571 255 2487ft 62kts
22-Aug-20 07:30 40.556563 -123.201100 48 3139ft 72kts
22-Aug-20 07:31 40.549276 -123.173449 182 3563ft 100kts
22-Aug-20 07:32 40.521933 -123.178903 190 4159ft 98kts
22-Aug-20 07:33 40.495032 -123.188584 203 4695ft 100kts
22-Aug-20 07:33 40.472613 -123.197300 201 5122ft 101kts
22-Aug-20 07:35 40.446417 -123.188980 122 5878ft 83kts
22-Aug-20 07:35 40.437322 -123.166599 117 6354ft 84kts
22-Aug-20 07:36 40.414658 -123.153455 159 6728ft 99kts
22-Aug-20 07:38 40.389435 -123.119445 114 6672ft 133kts
22-Aug-20 07:38 40.377058 -123.082171 114 6502ft 130kts
22-Aug-20 07:39 40.367048 -123.051228 109 6487ft 65kts
22-Aug-20 07:40 40.358084 -123.021174 112 6510ft 107kts
22-Aug-20 07:41 40.351399 -122.983233 81 6506ft 110kts
22-Aug-20 07:42 40.356124 -122.943484 80 6505ft 110kts
22-Aug-20 07:43 40.360870 -122.903507 80 6505ft 110kts
22-Aug-20 07:44 40.365605 -122.863126 81 6279ft 113kts
22-Aug-20 07:45 40.370286 -122.822852 81 5777ft 111kts
22-Aug-20 07:46 40.374930 -122.782750 81 5277ft 111kts
22-Aug-20 07:47 40.379560 -122.742529 81 4776ft 111kts
22-Aug-20 07:48 40.384155 -122.702470 81 4277ft 111kts
22-Aug-20 07:49 40.388653 -122.663108 81 3762ft 96kts
22-Aug-20 07:50 40.392341 -122.630968 81 3244ft 85kts
22-Aug-20 07:51 40.395747 -122.601472 79 2974ft 75kts
22-Aug-20 07:52 40.399550 -122.571097 79 2999ft 91kts
22-Aug-20 07:53 40.405709 -122.539141 66 3108ft 88kts
22-Aug-20 07:54 40.413050 -122.509156 69 3307ft 97kts
22-Aug-20 07:55 40.417169 -122.474453 79 2849ft 102kts
22-Aug-20 07:56 40.428750 -122.442109 55 2276ft 102kts
22-Aug-20 07:57 40.439711 -122.408988 68 1757ft 98kts
22-Aug-20 07:58 40.454245 -122.381639 53 1488ft 90kts
22-Aug-20 07:59 40.471227 -122.358653 61 1249ft 79kts
22-Aug-20 08:00 40.482672 -122.335474 48 1562ft 76kts
22-Aug-20 08:01 40.497011 -122.309857 25 1549ft 90kts
22-Aug-20 08:02 40.520645 -122.309653 356 1723ft 86kts
22-Aug-20 08:03 40.535137 -122.298597 123 1387ft 69kts
22-Aug-20 08:04 40.515441 -122.294888 177 514ft 52kts
22-Aug-20 08:05 40.508406 -122.296066 298 497ft 0kts
22-Aug-20 08:06 40.509926 -122.296265 5 498ft 14kts
22-Aug-20 08:07 40.515476 -122.296270 359 505ft 15kts
22-Aug-20 08:08 40.516237 -122.297960 306 505ft 6kts
22-Aug-20 08:09 40.516246 -122.298486 198 506ft 3kts
22-Aug-20 08:10 40.516051 -122.298416 146 506ft 0kts

Navigation Log

Ident Type
Flight plan parsing failed, navigation log unavailable